sensor_id;sensor_type;location;lat;lon;timestamp;P1;durP1;ratioP1;P2;durP2;ratioP2
21771;SDS011;11047;47.904;8.110;2024-03-02T00:00:40;4.15;;;3.45;;
21771;SDS011;11047;47.904;8.110;2024-03-02T00:03:07;6.45;;;4.15;;
21771;SDS011;11047;47.904;8.110;2024-03-02T00:05:35;5.97;;;4.80;;
21771;SDS011;11047;47.904;8.110;2024-03-02T00:08:03;5.45;;;3.75;;
21771;SDS011;11047;47.904;8.110;2024-03-02T00:10:35;4.63;;;2.83;;
21771;SDS011;11047;47.904;8.110;2024-03-02T00:13:05;3.90;;;3.08;;
21771;SDS011;11047;47.904;8.110;2024-03-02T00:15:45;5.57;;;3.33;;
21771;SDS011;11047;47.904;8.110;2024-03-02T00:18:14;5.20;;;3.83;;
21771;SDS011;11047;47.904;8.110;2024-03-02T00:20:45;4.45;;;3.65;;
21771;SDS011;11047;47.904;8.110;2024-03-02T00:23:14;5.35;;;3.78;;
21771;SDS011;11047;47.904;8.110;2024-03-02T00:25:42;3.47;;;2.85;;
21771;SDS011;11047;47.904;8.110;2024-03-02T00:28:11;3.42;;;3.00;;
21771;SDS011;11047;47.904;8.110;2024-03-02T00:30:56;4.53;;;3.70;;
21771;SDS011;11047;47.904;8.110;2024-03-02T00:33:26;6.43;;;3.70;;
21771;SDS011;11047;47.904;8.110;2024-03-02T00:35:56;5.63;;;3.60;;
21771;SDS011;11047;47.904;8.110;2024-03-02T00:38:22;3.75;;;3.33;;
21771;SDS011;11047;47.904;8.110;2024-03-02T00:40:49;3.67;;;3.00;;
21771;SDS011;11047;47.904;8.110;2024-03-02T00:46:15;5.03;;;3.13;;
21771;SDS011;11047;47.904;8.110;2024-03-02T00:51:30;5.25;;;3.78;;
21771;SDS011;11047;47.904;8.110;2024-03-02T00:53:58;5.80;;;3.63;;
21771;SDS011;11047;47.904;8.110;2024-03-02T00:56:29;3.97;;;3.38;;
21771;SDS011;11047;47.904;8.110;2024-03-02T00:58:57;4.82;;;3.67;;
21771;SDS011;11047;47.904;8.110;2024-03-02T01:01:25;3.92;;;3.45;;
21771;SDS011;11047;47.904;8.110;2024-03-02T01:03:52;5.05;;;3.33;;
21771;SDS011;11047;47.904;8.110;2024-03-02T01:06:19;4.53;;;3.53;;
21771;SDS011;11047;47.904;8.110;2024-03-02T01:08:47;3.55;;;3.22;;
21771;SDS011;11047;47.904;8.110;2024-03-02T01:11:16;5.55;;;4.13;;
21771;SDS011;11047;47.904;8.110;2024-03-02T01:13:44;6.22;;;4.47;;
21771;SDS011;11047;47.904;8.110;2024-03-02T01:16:11;6.32;;;4.00;;
21771;SDS011;11047;47.904;8.110;2024-03-02T01:18:39;5.07;;;3.65;;
21771;SDS011;11047;47.904;8.110;2024-03-02T01:21:06;3.83;;;3.05;;
21771;SDS011;11047;47.904;8.110;2024-03-02T01:23:33;7.25;;;3.20;;
21771;SDS011;11047;47.904;8.110;2024-03-02T01:26:00;5.18;;;3.92;;
21771;SDS011;11047;47.904;8.110;2024-03-02T01:28:27;5.25;;;3.97;;
21771;SDS011;11047;47.904;8.110;2024-03-02T01:30:54;4.50;;;3.67;;
21771;SDS011;11047;47.904;8.110;2024-03-02T01:33:21;4.38;;;3.60;;
21771;SDS011;11047;47.904;8.110;2024-03-02T01:35:49;5.20;;;3.80;;
21771;SDS011;11047;47.904;8.110;2024-03-02T01:38:16;6.05;;;4.60;;
21771;SDS011;11047;47.904;8.110;2024-03-02T01:40:44;4.97;;;3.75;;
21771;SDS011;11047;47.904;8.110;2024-03-02T01:43:11;4.95;;;3.70;;
21771;SDS011;11047;47.904;8.110;2024-03-02T01:45:38;6.97;;;4.05;;
21771;SDS011;11047;47.904;8.110;2024-03-02T01:48:05;6.05;;;3.85;;
21771;SDS011;11047;47.904;8.110;2024-03-02T01:50:33;5.70;;;4.00;;
21771;SDS011;11047;47.904;8.110;2024-03-02T01:53:02;5.18;;;4.10;;
21771;SDS011;11047;47.904;8.110;2024-03-02T01:55:29;4.68;;;3.50;;
21771;SDS011;11047;47.904;8.110;2024-03-02T01:57:58;4.53;;;3.13;;
21771;SDS011;11047;47.904;8.110;2024-03-02T02:00:25;5.95;;;3.60;;
21771;SDS011;11047;47.904;8.110;2024-03-02T02:02:53;6.03;;;4.45;;
21771;SDS011;11047;47.904;8.110;2024-03-02T02:05:20;6.47;;;3.95;;
21771;SDS011;11047;47.904;8.110;2024-03-02T02:07:47;5.20;;;3.25;;
21771;SDS011;11047;47.904;8.110;2024-03-02T02:10:16;5.65;;;3.15;;
21771;SDS011;11047;47.904;8.110;2024-03-02T02:12:43;4.65;;;3.28;;
21771;SDS011;11047;47.904;8.110;2024-03-02T02:17:52;4.35;;;3.42;;
21771;SDS011;11047;47.904;8.110;2024-03-02T02:20:19;4.57;;;3.55;;
21771;SDS011;11047;47.904;8.110;2024-03-02T02:22:55;5.88;;;4.05;;
21771;SDS011;11047;47.904;8.110;2024-03-02T02:25:23;5.32;;;3.78;;
21771;SDS011;11047;47.904;8.110;2024-03-02T02:27:50;5.07;;;4.07;;
21771;SDS011;11047;47.904;8.110;2024-03-02T02:30:20;6.15;;;4.32;;
21771;SDS011;11047;47.904;8.110;2024-03-02T02:32:48;5.25;;;3.92;;
21771;SDS011;11047;47.904;8.110;2024-03-02T02:35:15;7.03;;;4.05;;
21771;SDS011;11047;47.904;8.110;2024-03-02T02:37:43;4.97;;;3.63;;
21771;SDS011;11047;47.904;8.110;2024-03-02T02:40:12;4.43;;;3.55;;
21771;SDS011;11047;47.904;8.110;2024-03-02T02:42:39;4.10;;;3.30;;
21771;SDS011;11047;47.904;8.110;2024-03-02T02:45:06;5.50;;;3.92;;
21771;SDS011;11047;47.904;8.110;2024-03-02T02:47:34;4.00;;;3.33;;
21771;SDS011;11047;47.904;8.110;2024-03-02T02:50:01;4.72;;;3.83;;
21771;SDS011;11047;47.904;8.110;2024-03-02T02:52:32;4.90;;;3.92;;
21771;SDS011;11047;47.904;8.110;2024-03-02T02:55:01;6.63;;;3.85;;
21771;SDS011;11047;47.904;8.110;2024-03-02T02:57:33;3.95;;;3.55;;
21771;SDS011;11047;47.904;8.110;2024-03-02T03:00:03;4.97;;;3.55;;
21771;SDS011;11047;47.904;8.110;2024-03-02T03:02:35;4.88;;;3.40;;
21771;SDS011;11047;47.904;8.110;2024-03-02T03:05:06;4.55;;;3.13;;
21771;SDS011;11047;47.904;8.110;2024-03-02T03:07:34;4.13;;;3.10;;
21771;SDS011;11047;47.904;8.110;2024-03-02T03:10:01;4.22;;;3.42;;
21771;SDS011;11047;47.904;8.110;2024-03-02T03:12:29;5.20;;;3.67;;
21771;SDS011;11047;47.904;8.110;2024-03-02T03:14:58;4.20;;;3.55;;
21771;SDS011;11047;47.904;8.110;2024-03-02T03:17:25;4.05;;;3.35;;
21771;SDS011;11047;47.904;8.110;2024-03-02T03:19:52;4.88;;;3.50;;
21771;SDS011;11047;47.904;8.110;2024-03-02T03:22:19;7.30;;;3.88;;
21771;SDS011;11047;47.904;8.110;2024-03-02T03:24:46;5.07;;;4.18;;
21771;SDS011;11047;47.904;8.110;2024-03-02T03:27:13;8.73;;;4.18;;
21771;SDS011;11047;47.904;8.110;2024-03-02T03:29:40;5.13;;;3.92;;
21771;SDS011;11047;47.904;8.110;2024-03-02T03:32:09;5.75;;;4.13;;
21771;SDS011;11047;47.904;8.110;2024-03-02T03:34:36;4.50;;;3.45;;
21771;SDS011;11047;47.904;8.110;2024-03-02T03:37:03;4.40;;;3.40;;
21771;SDS011;11047;47.904;8.110;2024-03-02T03:39:30;4.47;;;3.03;;
21771;SDS011;11047;47.904;8.110;2024-03-02T03:41:57;6.88;;;4.55;;
21771;SDS011;11047;47.904;8.110;2024-03-02T03:44:24;6.60;;;4.60;;
21771;SDS011;11047;47.904;8.110;2024-03-02T03:46:51;5.22;;;4.00;;
21771;SDS011;11047;47.904;8.110;2024-03-02T03:49:19;6.32;;;4.60;;
21771;SDS011;11047;47.904;8.110;2024-03-02T03:51:46;7.22;;;5.07;;
21771;SDS011;11047;47.904;8.110;2024-03-02T03:54:13;5.10;;;4.40;;
21771;SDS011;11047;47.904;8.110;2024-03-02T03:56:40;4.97;;;4.05;;
21771;SDS011;11047;47.904;8.110;2024-03-02T03:59:07;6.40;;;4.65;;
21771;SDS011;11047;47.904;8.110;2024-03-02T04:01:34;6.43;;;4.25;;
21771;SDS011;11047;47.904;8.110;2024-03-02T04:04:01;7.53;;;4.07;;
21771;SDS011;11047;47.904;8.110;2024-03-02T04:06:30;6.65;;;4.40;;
21771;SDS011;11047;47.904;8.110;2024-03-02T04:08:57;6.43;;;4.57;;
21771;SDS011;11047;47.904;8.110;2024-03-02T04:11:24;7.60;;;4.47;;
21771;SDS011;11047;47.904;8.110;2024-03-02T04:13:50;6.25;;;4.63;;
21771;SDS011;11047;47.904;8.110;2024-03-02T04:16:17;4.93;;;4.10;;
21771;SDS011;11047;47.904;8.110;2024-03-02T04:18:44;5.88;;;4.53;;
21771;SDS011;11047;47.904;8.110;2024-03-02T04:21:11;6.53;;;4.10;;
21771;SDS011;11047;47.904;8.110;2024-03-02T04:23:40;4.53;;;3.80;;
21771;SDS011;11047;47.904;8.110;2024-03-02T04:26:07;5.10;;;3.90;;
21771;SDS011;11047;47.904;8.110;2024-03-02T04:28:34;6.00;;;3.97;;
21771;SDS011;11047;47.904;8.110;2024-03-02T04:31:01;4.45;;;3.58;;
21771;SDS011;11047;47.904;8.110;2024-03-02T04:33:28;5.15;;;4.22;;
21771;SDS011;11047;47.904;8.110;2024-03-02T04:35:55;4.60;;;3.40;;
21771;SDS011;11047;47.904;8.110;2024-03-02T04:38:22;4.50;;;4.00;;
21771;SDS011;11047;47.904;8.110;2024-03-02T04:40:51;4.68;;;3.35;;
21771;SDS011;11047;47.904;8.110;2024-03-02T04:43:17;5.63;;;3.80;;
21771;SDS011;11047;47.904;8.110;2024-03-02T04:45:45;4.75;;;3.75;;
21771;SDS011;11047;47.904;8.110;2024-03-02T04:48:12;5.45;;;3.67;;
21771;SDS011;11047;47.904;8.110;2024-03-02T04:50:39;5.15;;;3.70;;
21771;SDS011;11047;47.904;8.110;2024-03-02T04:53:06;6.55;;;4.53;;
21771;SDS011;11047;47.904;8.110;2024-03-02T04:55:33;4.25;;;3.53;;
21771;SDS011;11047;47.904;8.110;2024-03-02T04:58:45;6.05;;;4.50;;
21771;SDS011;11047;47.904;8.110;2024-03-02T05:01:12;5.32;;;3.70;;
21771;SDS011;11047;47.904;8.110;2024-03-02T05:03:41;4.88;;;4.15;;
21771;SDS011;11047;47.904;8.110;2024-03-02T05:06:08;6.07;;;4.20;;
21771;SDS011;11047;47.904;8.110;2024-03-02T05:08:35;5.82;;;4.07;;
21771;SDS011;11047;47.904;8.110;2024-03-02T05:14:25;5.57;;;3.88;;
21771;SDS011;11047;47.904;8.110;2024-03-02T05:16:53;4.47;;;3.72;;
21771;SDS011;11047;47.904;8.110;2024-03-02T05:19:20;5.05;;;3.85;;
21771;SDS011;11047;47.904;8.110;2024-03-02T05:21:47;4.38;;;3.40;;
21771;SDS011;11047;47.904;8.110;2024-03-02T05:24:14;4.38;;;3.58;;
21771;SDS011;11047;47.904;8.110;2024-03-02T05:26:41;4.38;;;3.83;;
21771;SDS011;11047;47.904;8.110;2024-03-02T05:29:08;5.32;;;3.78;;
21771;SDS011;11047;47.904;8.110;2024-03-02T05:31:37;4.15;;;3.28;;
21771;SDS011;11047;47.904;8.110;2024-03-02T05:34:04;4.32;;;3.45;;
21771;SDS011;11047;47.904;8.110;2024-03-02T05:36:31;4.18;;;3.10;;
21771;SDS011;11047;47.904;8.110;2024-03-02T05:38:58;5.72;;;3.72;;
21771;SDS011;11047;47.904;8.110;2024-03-02T05:41:25;3.58;;;3.10;;
21771;SDS011;11047;47.904;8.110;2024-03-02T05:43:52;4.40;;;3.17;;
21771;SDS011;11047;47.904;8.110;2024-03-02T05:46:19;4.88;;;3.72;;
21771;SDS011;11047;47.904;8.110;2024-03-02T05:48:47;5.10;;;3.47;;
21771;SDS011;11047;47.904;8.110;2024-03-02T05:51:14;4.63;;;3.72;;
21771;SDS011;11047;47.904;8.110;2024-03-02T05:53:41;3.92;;;3.22;;
21771;SDS011;11047;47.904;8.110;2024-03-02T05:56:08;6.55;;;3.58;;
21771;SDS011;11047;47.904;8.110;2024-03-02T05:58:35;6.80;;;3.78;;
21771;SDS011;11047;47.904;8.110;2024-03-02T06:01:14;5.38;;;4.05;;
21771;SDS011;11047;47.904;8.110;2024-03-02T06:03:43;6.63;;;4.70;;
21771;SDS011;11047;47.904;8.110;2024-03-02T06:06:11;6.30;;;4.28;;
21771;SDS011;11047;47.904;8.110;2024-03-02T06:08:38;5.20;;;3.63;;
21771;SDS011;11047;47.904;8.110;2024-03-02T06:11:05;4.85;;;3.78;;
21771;SDS011;11047;47.904;8.110;2024-03-02T06:13:32;5.35;;;3.72;;
21771;SDS011;11047;47.904;8.110;2024-03-02T06:15:59;7.00;;;4.07;;
21771;SDS011;11047;47.904;8.110;2024-03-02T06:18:26;6.72;;;4.07;;
21771;SDS011;11047;47.904;8.110;2024-03-02T06:20:53;6.72;;;3.90;;
21771;SDS011;11047;47.904;8.110;2024-03-02T06:23:21;5.45;;;3.53;;
21771;SDS011;11047;47.904;8.110;2024-03-02T06:25:48;5.82;;;4.43;;
21771;SDS011;11047;47.904;8.110;2024-03-02T06:28:15;5.70;;;4.47;;
21771;SDS011;11047;47.904;8.110;2024-03-02T06:30:42;5.93;;;4.35;;
21771;SDS011;11047;47.904;8.110;2024-03-02T06:33:10;5.93;;;4.28;;
21771;SDS011;11047;47.904;8.110;2024-03-02T06:35:37;6.82;;;4.90;;
21771;SDS011;11047;47.904;8.110;2024-03-02T06:38:12;7.93;;;4.57;;
21771;SDS011;11047;47.904;8.110;2024-03-02T06:40:43;7.75;;;5.72;;
21771;SDS011;11047;47.904;8.110;2024-03-02T06:43:10;6.45;;;4.18;;
21771;SDS011;11047;47.904;8.110;2024-03-02T06:45:37;5.85;;;4.55;;
21771;SDS011;11047;47.904;8.110;2024-03-02T06:48:04;8.77;;;6.35;;
21771;SDS011;11047;47.904;8.110;2024-03-02T06:50:32;8.30;;;5.55;;
21771;SDS011;11047;47.904;8.110;2024-03-02T06:52:59;7.05;;;5.15;;
21771;SDS011;11047;47.904;8.110;2024-03-02T06:55:29;7.88;;;5.45;;
21771;SDS011;11047;47.904;8.110;2024-03-02T06:57:57;8.82;;;5.95;;
21771;SDS011;11047;47.904;8.110;2024-03-02T07:00:24;8.60;;;5.43;;
21771;SDS011;11047;47.904;8.110;2024-03-02T07:02:51;8.30;;;5.25;;
21771;SDS011;11047;47.904;8.110;2024-03-02T07:05:18;7.40;;;5.45;;
21771;SDS011;11047;47.904;8.110;2024-03-02T07:07:46;6.75;;;5.03;;
21771;SDS011;11047;47.904;8.110;2024-03-02T07:10:13;8.07;;;5.20;;
21771;SDS011;11047;47.904;8.110;2024-03-02T07:12:40;7.07;;;5.13;;
21771;SDS011;11047;47.904;8.110;2024-03-02T07:15:09;9.73;;;5.45;;
21771;SDS011;11047;47.904;8.110;2024-03-02T07:18:02;6.50;;;5.03;;
21771;SDS011;11047;47.904;8.110;2024-03-02T07:20:30;5.93;;;4.15;;
21771;SDS011;11047;47.904;8.110;2024-03-02T07:22:57;6.85;;;4.22;;
21771;SDS011;11047;47.904;8.110;2024-03-02T07:25:24;8.13;;;4.60;;
21771;SDS011;11047;47.904;8.110;2024-03-02T07:27:50;6.55;;;4.55;;
21771;SDS011;11047;47.904;8.110;2024-03-02T07:30:19;7.88;;;5.68;;
21771;SDS011;11047;47.904;8.110;2024-03-02T07:32:46;8.35;;;5.00;;
21771;SDS011;11047;47.904;8.110;2024-03-02T07:35:16;6.05;;;4.40;;
21771;SDS011;11047;47.904;8.110;2024-03-02T07:37:43;7.75;;;5.05;;
21771;SDS011;11047;47.904;8.110;2024-03-02T07:40:11;6.57;;;4.93;;
21771;SDS011;11047;47.904;8.110;2024-03-02T07:42:39;6.55;;;4.82;;
21771;SDS011;11047;47.904;8.110;2024-03-02T07:45:07;7.90;;;4.55;;
21771;SDS011;11047;47.904;8.110;2024-03-02T07:47:35;6.95;;;4.70;;
21771;SDS011;11047;47.904;8.110;2024-03-02T07:50:03;5.15;;;4.28;;
21771;SDS011;11047;47.904;8.110;2024-03-02T07:52:31;6.20;;;4.35;;
21771;SDS011;11047;47.904;8.110;2024-03-02T07:54:58;7.13;;;4.97;;
21771;SDS011;11047;47.904;8.110;2024-03-02T07:57:25;6.22;;;4.53;;
21771;SDS011;11047;47.904;8.110;2024-03-02T07:59:52;7.85;;;4.97;;
21771;SDS011;11047;47.904;8.110;2024-03-02T08:02:19;5.45;;;4.53;;
21771;SDS011;11047;47.904;8.110;2024-03-02T08:04:48;6.13;;;4.53;;
21771;SDS011;11047;47.904;8.110;2024-03-02T08:07:15;4.97;;;4.45;;
21771;SDS011;11047;47.904;8.110;2024-03-02T08:09:42;5.57;;;4.60;;
21771;SDS011;11047;47.904;8.110;2024-03-02T08:12:09;6.10;;;5.07;;
21771;SDS011;11047;47.904;8.110;2024-03-02T08:14:36;5.78;;;4.43;;
21771;SDS011;11047;47.904;8.110;2024-03-02T08:17:03;9.32;;;5.30;;
21771;SDS011;11047;47.904;8.110;2024-03-02T08:19:34;6.13;;;5.03;;
21771;SDS011;11047;47.904;8.110;2024-03-02T08:22:04;6.63;;;4.72;;
21771;SDS011;11047;47.904;8.110;2024-03-02T08:24:31;6.30;;;4.32;;
21771;SDS011;11047;47.904;8.110;2024-03-02T08:26:58;5.15;;;4.32;;
21771;SDS011;11047;47.904;8.110;2024-03-02T08:29:25;6.72;;;4.47;;
21771;SDS011;11047;47.904;8.110;2024-03-02T08:31:52;5.43;;;4.28;;
21771;SDS011;11047;47.904;8.110;2024-03-02T08:34:20;5.32;;;3.80;;
21771;SDS011;11047;47.904;8.110;2024-03-02T08:36:47;4.72;;;3.78;;
21771;SDS011;11047;47.904;8.110;2024-03-02T08:39:15;5.18;;;4.20;;
21771;SDS011;11047;47.904;8.110;2024-03-02T08:41:42;4.68;;;3.88;;
21771;SDS011;11047;47.904;8.110;2024-03-02T08:44:11;5.18;;;3.88;;
21771;SDS011;11047;47.904;8.110;2024-03-02T08:46:38;6.53;;;4.55;;
21771;SDS011;11047;47.904;8.110;2024-03-02T08:49:06;5.05;;;4.05;;
21771;SDS011;11047;47.904;8.110;2024-03-02T08:51:33;4.43;;;3.92;;
21771;SDS011;11047;47.904;8.110;2024-03-02T08:54:00;4.90;;;3.70;;
21771;SDS011;11047;47.904;8.110;2024-03-02T08:56:30;4.07;;;3.65;;
21771;SDS011;11047;47.904;8.110;2024-03-02T08:58:57;4.35;;;3.95;;
21771;SDS011;11047;47.904;8.110;2024-03-02T09:01:24;4.15;;;3.75;;
21771;SDS011;11047;47.904;8.110;2024-03-02T09:03:51;3.38;;;3.08;;
21771;SDS011;11047;47.904;8.110;2024-03-02T09:06:18;4.13;;;3.38;;
21771;SDS011;11047;47.904;8.110;2024-03-02T09:08:46;3.90;;;2.67;;
21771;SDS011;11047;47.904;8.110;2024-03-02T09:11:14;4.82;;;3.28;;
21771;SDS011;11047;47.904;8.110;2024-03-02T09:13:43;5.13;;;3.30;;
21771;SDS011;11047;47.904;8.110;2024-03-02T09:16:10;4.00;;;3.60;;
21771;SDS011;11047;47.904;8.110;2024-03-02T09:18:37;3.92;;;3.05;;
21771;SDS011;11047;47.904;8.110;2024-03-02T09:21:04;3.08;;;2.80;;
21771;SDS011;11047;47.904;8.110;2024-03-02T09:23:31;3.20;;;2.90;;
21771;SDS011;11047;47.904;8.110;2024-03-02T09:25:58;3.47;;;3.17;;
21771;SDS011;11047;47.904;8.110;2024-03-02T09:28:26;3.28;;;2.97;;
21771;SDS011;11047;47.904;8.110;2024-03-02T09:30:54;4.05;;;2.90;;
21771;SDS011;11047;47.904;8.110;2024-03-02T09:33:21;3.42;;;3.13;;
21771;SDS011;11047;47.904;8.110;2024-03-02T09:35:48;3.70;;;2.67;;
21771;SDS011;11047;47.904;8.110;2024-03-02T09:38:15;2.35;;;2.05;;
21771;SDS011;11047;47.904;8.110;2024-03-02T09:40:42;1.83;;;1.73;;
21771;SDS011;11047;47.904;8.110;2024-03-02T09:43:09;1.92;;;1.73;;
21771;SDS011;11047;47.904;8.110;2024-03-02T09:45:36;2.53;;;1.90;;
21771;SDS011;11047;47.904;8.110;2024-03-02T09:48:06;1.98;;;1.83;;
21771;SDS011;11047;47.904;8.110;2024-03-02T09:50:33;1.73;;;1.40;;
21771;SDS011;11047;47.904;8.110;2024-03-02T09:53:00;1.50;;;1.30;;
21771;SDS011;11047;47.904;8.110;2024-03-02T09:55:28;1.80;;;1.70;;
21771;SDS011;11047;47.904;8.110;2024-03-02T09:57:56;2.30;;;1.90;;
21771;SDS011;11047;47.904;8.110;2024-03-02T10:00:23;1.60;;;1.40;;
21771;SDS011;11047;47.904;8.110;2024-03-02T10:02:50;1.83;;;1.17;;
21771;SDS011;11047;47.904;8.110;2024-03-02T10:05:24;1.48;;;1.38;;
21771;SDS011;11047;47.904;8.110;2024-03-02T10:08:02;2.00;;;1.23;;
21771;SDS011;11047;47.904;8.110;2024-03-02T10:10:36;1.83;;;1.73;;
21771;SDS011;11047;47.904;8.110;2024-03-02T10:13:07;1.73;;;1.33;;
21771;SDS011;11047;47.904;8.110;2024-03-02T10:15:35;2.35;;;1.45;;
21771;SDS011;11047;47.904;8.110;2024-03-02T10:18:02;2.30;;;1.70;;
21771;SDS011;11047;47.904;8.110;2024-03-02T10:20:31;1.67;;;1.30;;
21771;SDS011;11047;47.904;8.110;2024-03-02T10:23:09;1.80;;;1.60;;
21771;SDS011;11047;47.904;8.110;2024-03-02T10:25:43;1.45;;;1.15;;
21771;SDS011;11047;47.904;8.110;2024-03-02T10:28:10;1.55;;;1.20;;
21771;SDS011;11047;47.904;8.110;2024-03-02T10:30:37;1.40;;;1.20;;
21771;SDS011;11047;47.904;8.110;2024-03-02T10:33:05;1.30;;;1.05;;
21771;SDS011;11047;47.904;8.110;2024-03-02T10:35:34;1.27;;;0.90;;
21771;SDS011;11047;47.904;8.110;2024-03-02T10:38:03;1.75;;;0.85;;
21771;SDS011;11047;47.904;8.110;2024-03-02T10:40:31;0.95;;;0.85;;
21771;SDS011;11047;47.904;8.110;2024-03-02T10:42:58;0.98;;;0.88;;
21771;SDS011;11047;47.904;8.110;2024-03-02T10:45:28;0.82;;;0.75;;
21771;SDS011;11047;47.904;8.110;2024-03-02T10:47:55;2.40;;;1.40;;
21771;SDS011;11047;47.904;8.110;2024-03-02T10:50:23;1.50;;;1.40;;
21771;SDS011;11047;47.904;8.110;2024-03-02T10:52:52;1.83;;;1.27;;
21771;SDS011;11047;47.904;8.110;2024-03-02T10:55:19;2.30;;;1.88;;
21771;SDS011;11047;47.904;8.110;2024-03-02T10:57:49;2.17;;;1.15;;
21771;SDS011;11047;47.904;8.110;2024-03-02T11:00:18;1.30;;;0.98;;
21771;SDS011;11047;47.904;8.110;2024-03-02T11:02:50;1.45;;;1.35;;
21771;SDS011;11047;47.904;8.110;2024-03-02T11:05:27;1.15;;;1.05;;
21771;SDS011;11047;47.904;8.110;2024-03-02T11:08:00;1.23;;;1.13;;
21771;SDS011;11047;47.904;8.110;2024-03-02T11:10:31;2.72;;;1.67;;
21771;SDS011;11047;47.904;8.110;2024-03-02T11:13:02;1.98;;;1.50;;
21771;SDS011;11047;47.904;8.110;2024-03-02T11:15:32;1.45;;;1.17;;
21771;SDS011;11047;47.904;8.110;2024-03-02T11:18:01;3.15;;;1.20;;
21771;SDS011;11047;47.904;8.110;2024-03-02T11:20:33;2.20;;;2.00;;
21771;SDS011;11047;47.904;8.110;2024-03-02T11:23:05;1.83;;;1.52;;
21771;SDS011;11047;47.904;8.110;2024-03-02T11:25:33;2.45;;;2.25;;
21771;SDS011;11047;47.904;8.110;2024-03-02T11:28:01;3.90;;;2.70;;
21771;SDS011;11047;47.904;8.110;2024-03-02T11:33:24;2.65;;;2.33;;
21771;SDS011;11047;47.904;8.110;2024-03-02T11:35:55;2.30;;;2.08;;
21771;SDS011;11047;47.904;8.110;2024-03-02T11:38:26;5.10;;;1.85;;
21771;SDS011;11047;47.904;8.110;2024-03-02T11:40:54;3.75;;;1.83;;
21771;SDS011;11047;47.904;8.110;2024-03-02T11:43:22;3.45;;;2.75;;
21771;SDS011;11047;47.904;8.110;2024-03-02T11:45:51;4.70;;;3.78;;
21771;SDS011;11047;47.904;8.110;2024-03-02T11:48:23;4.25;;;2.20;;
21771;SDS011;11047;47.904;8.110;2024-03-02T11:50:51;2.65;;;2.13;;
21771;SDS011;11047;47.904;8.110;2024-03-02T11:53:19;6.68;;;5.22;;
21771;SDS011;11047;47.904;8.110;2024-03-02T11:55:48;3.97;;;2.92;;
21771;SDS011;11047;47.904;8.110;2024-03-02T11:58:16;7.70;;;6.07;;
21771;SDS011;11047;47.904;8.110;2024-03-02T12:00:45;4.32;;;2.60;;
21771;SDS011;11047;47.904;8.110;2024-03-02T12:03:13;1.55;;;1.45;;
21771;SDS011;11047;47.904;8.110;2024-03-02T12:05:40;3.25;;;1.88;;
21771;SDS011;11047;47.904;8.110;2024-03-02T12:08:08;5.38;;;2.97;;
21771;SDS011;11047;47.904;8.110;2024-03-02T12:10:36;3.80;;;2.60;;
21771;SDS011;11047;47.904;8.110;2024-03-02T12:13:05;0.95;;;0.90;;
21771;SDS011;11047;47.904;8.110;2024-03-02T12:15:35;1.35;;;1.25;;
21771;SDS011;11047;47.904;8.110;2024-03-02T12:18:03;1.55;;;1.40;;
21771;SDS011;11047;47.904;8.110;2024-03-02T12:20:32;1.88;;;1.08;;
21771;SDS011;11047;47.904;8.110;2024-03-02T12:23:00;3.50;;;2.22;;
21771;SDS011;11047;47.904;8.110;2024-03-02T12:25:28;4.28;;;3.22;;
21771;SDS011;11047;47.904;8.110;2024-03-02T12:27:58;0.77;;;0.77;;
21771;SDS011;11047;47.904;8.110;2024-03-02T12:30:29;1.58;;;1.42;;
21771;SDS011;11047;47.904;8.110;2024-03-02T12:32:56;1.65;;;1.55;;
21771;SDS011;11047;47.904;8.110;2024-03-02T12:35:24;1.83;;;1.40;;
21771;SDS011;11047;47.904;8.110;2024-03-02T12:37:51;2.90;;;1.27;;
21771;SDS011;11047;47.904;8.110;2024-03-02T12:40:32;3.60;;;2.05;;
21771;SDS011;11047;47.904;8.110;2024-03-02T12:42:59;5.32;;;3.95;;
21771;SDS011;11047;47.904;8.110;2024-03-02T12:45:27;1.55;;;1.25;;
21771;SDS011;11047;47.904;8.110;2024-03-02T12:47:54;2.28;;;1.77;;
21771;SDS011;11047;47.904;8.110;2024-03-02T12:50:21;1.85;;;1.63;;
21771;SDS011;11047;47.904;8.110;2024-03-02T12:52:52;3.88;;;2.95;;
21771;SDS011;11047;47.904;8.110;2024-03-02T12:55:20;3.47;;;3.17;;
21771;SDS011;11047;47.904;8.110;2024-03-02T12:57:49;2.22;;;1.92;;
21771;SDS011;11047;47.904;8.110;2024-03-02T13:00:17;2.38;;;1.67;;
21771;SDS011;11047;47.904;8.110;2024-03-02T13:02:47;4.80;;;4.28;;
21771;SDS011;11047;47.904;8.110;2024-03-02T13:05:15;4.43;;;3.72;;
21771;SDS011;11047;47.904;8.110;2024-03-02T13:07:42;2.30;;;1.90;;
21771;SDS011;11047;47.904;8.110;2024-03-02T13:10:11;7.95;;;5.35;;
21771;SDS011;11047;47.904;8.110;2024-03-02T13:12:38;5.53;;;5.00;;
21771;SDS011;11047;47.904;8.110;2024-03-02T13:15:06;7.50;;;5.07;;
21771;SDS011;11047;47.904;8.110;2024-03-02T13:17:35;5.93;;;4.40;;
21771;SDS011;11047;47.904;8.110;2024-03-02T13:20:04;5.70;;;5.10;;
21771;SDS011;11047;47.904;8.110;2024-03-02T13:22:35;1.60;;;0.73;;
21771;SDS011;11047;47.904;8.110;2024-03-02T13:25:03;0.93;;;0.70;;
21771;SDS011;11047;47.904;8.110;2024-03-02T13:27:30;0.70;;;0.70;;
21771;SDS011;11047;47.904;8.110;2024-03-02T13:29:58;0.68;;;0.60;;
21771;SDS011;11047;47.904;8.110;2024-03-02T13:32:25;4.07;;;3.70;;
21771;SDS011;11047;47.904;8.110;2024-03-02T13:34:52;1.92;;;1.20;;
21771;SDS011;11047;47.904;8.110;2024-03-02T13:37:21;2.70;;;2.10;;
21771;SDS011;11047;47.904;8.110;2024-03-02T13:39:48;1.70;;;1.58;;
21771;SDS011;11047;47.904;8.110;2024-03-02T13:42:15;2.08;;;1.85;;
21771;SDS011;11047;47.904;8.110;2024-03-02T13:44:43;3.20;;;2.90;;
21771;SDS011;11047;47.904;8.110;2024-03-02T13:47:13;3.20;;;2.40;;
21771;SDS011;11047;47.904;8.110;2024-03-02T13:49:40;1.35;;;0.93;;
21771;SDS011;11047;47.904;8.110;2024-03-02T13:52:10;3.13;;;1.33;;
21771;SDS011;11047;47.904;8.110;2024-03-02T13:54:40;2.90;;;2.53;;
21771;SDS011;11047;47.904;8.110;2024-03-02T13:57:07;0.50;;;0.50;;
21771;SDS011;11047;47.904;8.110;2024-03-02T13:59:36;1.23;;;1.00;;
21771;SDS011;11047;47.904;8.110;2024-03-02T14:02:04;4.30;;;1.30;;
21771;SDS011;11047;47.904;8.110;2024-03-02T14:04:32;0.50;;;0.50;;
21771;SDS011;11047;47.904;8.110;2024-03-02T14:06:59;4.43;;;4.00;;
21771;SDS011;11047;47.904;8.110;2024-03-02T14:09:27;5.38;;;4.28;;
21771;SDS011;11047;47.904;8.110;2024-03-02T14:11:56;1.75;;;1.30;;
21771;SDS011;11047;47.904;8.110;2024-03-02T14:14:25;2.35;;;1.88;;
21771;SDS011;11047;47.904;8.110;2024-03-02T14:16:52;2.05;;;1.70;;
21771;SDS011;11047;47.904;8.110;2024-03-02T14:19:21;1.05;;;0.98;;
21771;SDS011;11047;47.904;8.110;2024-03-02T14:21:48;1.95;;;0.55;;
21771;SDS011;11047;47.904;8.110;2024-03-02T14:24:15;1.05;;;0.73;;
21771;SDS011;11047;47.904;8.110;2024-03-02T14:26:42;0.50;;;0.50;;
21771;SDS011;11047;47.904;8.110;2024-03-02T14:29:11;1.05;;;0.40;;
21771;SDS011;11047;47.904;8.110;2024-03-02T14:31:38;1.80;;;1.58;;
21771;SDS011;11047;47.904;8.110;2024-03-02T14:37:03;0.40;;;0.40;;
21771;SDS011;11047;47.904;8.110;2024-03-02T14:39:31;0.65;;;0.50;;
21771;SDS011;11047;47.904;8.110;2024-03-02T14:41:59;0.70;;;0.47;;
21771;SDS011;11047;47.904;8.110;2024-03-02T14:44:28;3.92;;;1.10;;
21771;SDS011;11047;47.904;8.110;2024-03-02T14:46:55;2.25;;;1.65;;
21771;SDS011;11047;47.904;8.110;2024-03-02T14:49:23;0.90;;;0.70;;
21771;SDS011;11047;47.904;8.110;2024-03-02T14:51:50;1.48;;;0.60;;
21771;SDS011;11047;47.904;8.110;2024-03-02T14:54:18;0.88;;;0.70;;
21771;SDS011;11047;47.904;8.110;2024-03-02T14:56:45;0.75;;;0.68;;
21771;SDS011;11047;47.904;8.110;2024-03-02T14:59:12;1.35;;;0.77;;
21771;SDS011;11047;47.904;8.110;2024-03-02T15:01:40;3.78;;;3.40;;
21771;SDS011;11047;47.904;8.110;2024-03-02T15:04:07;1.85;;;0.90;;
21771;SDS011;11047;47.904;8.110;2024-03-02T15:06:35;0.98;;;0.93;;
21771;SDS011;11047;47.904;8.110;2024-03-02T15:09:02;1.35;;;1.13;;
21771;SDS011;11047;47.904;8.110;2024-03-02T15:11:29;1.52;;;1.08;;